createdAt,value
2018-11-07T00:02:25.680Z,20.23
2018-11-07T00:05:29.284Z,20.37
2018-11-07T00:08:32.810Z,21.30
2018-11-07T00:11:36.391Z,21.27
2018-11-07T00:14:41.025Z,20.43
2018-11-07T00:17:44.630Z,20.80
2018-11-07T00:20:48.183Z,21.93
2018-11-07T00:23:51.883Z,21.23
2018-11-07T00:26:55.437Z,20.77
2018-11-07T00:29:59.200Z,21.27
2018-11-07T00:33:02.715Z,19.93
2018-11-07T00:36:06.811Z,22.00
2018-11-07T00:39:10.883Z,20.20
2018-11-07T00:42:14.367Z,20.90
2018-11-07T00:45:17.952Z,18.80
2018-11-07T00:48:21.526Z,19.30
2018-11-07T00:51:25.015Z,18.67
2018-11-07T00:54:28.562Z,18.97
2018-11-07T00:57:32.147Z,19.13
2018-11-07T01:00:35.630Z,18.13
2018-11-07T01:03:39.255Z,18.93
2018-11-07T01:06:42.707Z,18.07
2018-11-07T01:09:46.287Z,17.70
2018-11-07T01:12:49.952Z,18.30
2018-11-07T01:15:53.467Z,17.97
2018-11-07T01:18:56.961Z,16.77
2018-11-07T01:22:00.503Z,17.13
2018-11-07T01:25:04.243Z,17.70
2018-11-07T01:28:07.768Z,17.03
2018-11-07T01:31:11.244Z,16.83
2018-11-07T01:34:15.112Z,16.60
2018-11-07T01:37:18.633Z,15.67
2018-11-07T01:40:22.219Z,16.97
2018-11-07T01:43:25.724Z,16.93
2018-11-07T01:46:29.207Z,15.93
2018-11-07T01:49:32.744Z,16.70
2018-11-07T01:52:36.283Z,16.57
2018-11-07T01:55:39.805Z,17.00
2018-11-07T01:58:43.251Z,16.27
2018-11-07T02:01:46.755Z,16.30
2018-11-07T02:04:50.280Z,16.67
2018-11-07T02:07:53.874Z,16.00
2018-11-07T02:10:57.405Z,16.80
2018-11-07T02:14:00.975Z,16.17
2018-11-07T02:17:04.562Z,14.57
2018-11-07T02:20:09.440Z,15.40
2018-11-07T02:23:13.025Z,14.90
2018-11-07T02:26:16.606Z,15.13
2018-11-07T02:29:21.165Z,14.57
2018-11-07T02:32:24.661Z,15.10
2018-11-07T02:35:28.170Z,14.33
2018-11-07T02:38:31.681Z,15.33
2018-11-07T02:41:35.243Z,14.13
2018-11-07T02:44:38.707Z,14.37
2018-11-07T02:47:42.315Z,14.30
2018-11-07T02:50:45.816Z,14.33
2018-11-07T02:53:49.356Z,13.80
2018-11-07T02:56:52.893Z,14.67
2018-11-07T02:59:56.437Z,14.07
2018-11-07T03:02:59.949Z,14.07
2018-11-07T03:06:03.513Z,14.73
2018-11-07T03:09:09.351Z,13.57
2018-11-07T03:12:12.770Z,13.53
2018-11-07T03:15:16.315Z,13.87
2018-11-07T03:18:19.818Z,14.20
2018-11-07T03:21:23.300Z,13.83
2018-11-07T03:24:26.803Z,13.43
2018-11-07T03:27:30.310Z,12.63
2018-11-07T03:30:33.772Z,13.67
2018-11-07T03:33:37.350Z,13.60
2018-11-07T03:36:40.849Z,14.00
2018-11-07T03:39:44.489Z,14.00
2018-11-07T03:42:48.047Z,13.27
2018-11-07T03:45:56.807Z,13.00
2018-11-07T03:49:00.259Z,13.60
2018-11-07T03:52:03.715Z,12.77
2018-11-07T03:55:07.465Z,12.10
2018-11-07T03:58:10.974Z,12.93
2018-11-07T04:01:14.479Z,11.77
2018-11-07T04:04:18.004Z,12.03
2018-11-07T04:07:21.448Z,12.57
2018-11-07T04:10:24.985Z,12.40
2018-11-07T04:13:28.507Z,11.60
2018-11-07T04:16:32.010Z,12.50
2018-11-07T04:19:35.513Z,11.70
2018-11-07T04:22:39.358Z,11.67
2018-11-07T04:25:42.729Z,10.93
2018-11-07T04:28:46.195Z,11.17
2018-11-07T04:31:49.731Z,9.90
2018-11-07T04:34:53.744Z,10.17
2018-11-07T04:37:57.170Z,9.87
2018-11-07T04:41:00.609Z,9.50
2018-11-07T04:44:04.323Z,9.93
2018-11-07T04:47:08.092Z,9.60
2018-11-07T04:50:12.547Z,9.23
2018-11-07T04:53:16.099Z,10.53
2018-11-07T04:56:19.504Z,10.60
2018-11-07T04:59:23.121Z,9.83
2018-11-07T05:02:26.757Z,10.10
2018-11-07T05:05:30.327Z,9.17
2018-11-07T05:08:33.993Z,9.73
2018-11-07T05:11:37.443Z,8.93
2018-11-07T05:14:40.998Z,8.53
2018-11-07T05:17:44.578Z,8.77
2018-11-07T05:20:48.225Z,8.43
2018-11-07T05:23:53.051Z,8.77
2018-11-07T05:26:56.678Z,9.03
2018-11-07T05:30:00.248Z,8.67
2018-11-07T05:33:03.868Z,9.33
2018-11-07T05:36:07.950Z,8.40
2018-11-07T05:39:11.493Z,8.50
2018-11-07T05:42:15.127Z,8.27
2018-11-07T05:45:18.799Z,8.33
2018-11-07T05:48:22.268Z,8.60
2018-11-07T05:51:25.862Z,7.73
2018-11-07T05:54:29.369Z,7.87
2018-11-07T05:57:32.815Z,7.90
2018-11-07T06:00:37.360Z,8.00
2018-11-07T06:03:40.931Z,8.33
2018-11-07T06:06:44.513Z,7.77
2018-11-07T06:09:48.013Z,7.70
2018-11-07T06:12:51.478Z,8.30
2018-11-07T06:15:55.101Z,8.07
2018-11-07T06:18:59.611Z,8.50
2018-11-07T06:22:18.474Z,7.60
2018-11-07T06:25:23.057Z,8.20
2018-11-07T06:28:26.623Z,7.07
2018-11-07T06:31:30.152Z,7.97
2018-11-07T06:34:33.612Z,8.40
2018-11-07T06:37:37.135Z,7.77
2018-11-07T06:40:40.640Z,7.83
2018-11-07T06:43:44.145Z,7.73
2018-11-07T06:46:47.628Z,7.87
2018-11-07T06:49:51.095Z,6.90
2018-11-07T06:52:54.947Z,7.00
2018-11-07T06:55:58.518Z,8.77
2018-11-07T06:59:02.124Z,9.13
2018-11-07T07:02:05.707Z,8.67
2018-11-07T07:05:09.222Z,8.90
2018-11-07T07:08:12.793Z,8.53
2018-11-07T07:11:16.219Z,8.27
2018-11-07T07:14:19.784Z,8.47
2018-11-07T07:17:23.417Z,8.70
2018-11-07T07:20:27.001Z,8.53
2018-11-07T07:23:30.504Z,8.33
2018-11-07T07:26:34.142Z,8.30
2018-11-07T07:29:37.716Z,8.67
2018-11-07T07:32:42.100Z,8.40
2018-11-07T07:35:46.680Z,8.57
2018-11-07T07:38:50.295Z,8.33
2018-11-07T07:41:53.689Z,9.27
2018-11-07T07:44:57.052Z,9.63
2018-11-07T07:48:00.501Z,9.53
2018-11-07T07:51:04.006Z,10.10
2018-11-07T07:54:07.571Z,9.70
2018-11-07T07:57:11.010Z,9.87
2018-11-07T08:00:16.699Z,9.83
2018-11-07T08:03:20.151Z,9.57
2018-11-07T08:06:23.861Z,9.77
2018-11-07T08:09:27.343Z,9.40
2018-11-07T08:12:30.740Z,9.23
2018-11-07T08:15:34.223Z,9.03
2018-11-07T08:18:37.738Z,8.50
2018-11-07T08:21:41.280Z,9.33
2018-11-07T08:24:44.742Z,9.80
2018-11-07T08:27:48.207Z,9.40
2018-11-07T08:30:51.986Z,10.00
2018-11-07T08:33:55.368Z,9.50
2018-11-07T08:36:58.813Z,9.33
2018-11-07T08:40:02.413Z,10.13
2018-11-07T08:43:05.942Z,9.90
2018-11-07T08:46:09.467Z,9.70
2018-11-07T08:49:12.953Z,9.43
2018-11-07T08:52:16.456Z,10.63
2018-11-07T08:55:21.251Z,9.20
2018-11-07T08:58:24.698Z,9.60
2018-11-07T09:01:28.243Z,8.93
2018-11-07T09:04:31.678Z,9.80
2018-11-07T09:07:35.525Z,9.57
2018-11-07T09:10:38.991Z,9.93
2018-11-07T09:13:42.521Z,9.17
2018-11-07T09:16:45.971Z,9.97
2018-11-07T09:19:49.484Z,10.07
2018-11-07T09:22:53.022Z,9.73
2018-11-07T09:25:56.620Z,9.33
2018-11-07T09:29:00.135Z,9.43
2018-11-07T09:32:03.490Z,9.33
2018-11-07T09:35:08.013Z,9.03
2018-11-07T09:38:11.426Z,8.93
2018-11-07T09:41:14.969Z,9.00
2018-11-07T09:44:18.487Z,8.27
2018-11-07T09:47:22.043Z,8.67
2018-11-07T09:50:25.477Z,8.00
2018-11-07T09:53:28.935Z,7.77
2018-11-07T09:56:32.300Z,8.30
2018-11-07T09:59:35.875Z,8.10
2018-11-07T10:02:39.630Z,8.40
2018-11-07T10:05:43.079Z,7.87
2018-11-07T10:08:46.672Z,8.27
2018-11-07T10:11:50.211Z,7.47
2018-11-07T10:14:54.806Z,7.47
2018-11-07T10:17:58.284Z,7.90
2018-11-07T10:21:01.683Z,7.97
2018-11-07T10:24:05.429Z,7.63
2018-11-07T10:27:09.165Z,7.33
2018-11-07T10:30:14.612Z,7.70
2018-11-07T10:33:17.749Z,7.80
2018-11-07T10:36:21.442Z,7.80
2018-11-07T10:39:24.856Z,8.00
2018-11-07T10:42:28.335Z,8.10
2018-11-07T10:45:31.790Z,7.53
2018-11-07T10:48:35.389Z,8.00
2018-11-07T10:51:39.006Z,7.70
2018-11-07T10:54:42.614Z,7.77
2018-11-07T10:57:46.389Z,7.90
2018-11-07T11:00:55.106Z,7.67
2018-11-07T11:03:58.524Z,7.87
2018-11-07T11:07:02.045Z,8.20
2018-11-07T11:10:05.768Z,7.77
2018-11-07T11:13:10.419Z,7.13
2018-11-07T11:16:13.909Z,7.37
2018-11-07T11:19:17.495Z,8.20
2018-11-07T11:22:21.108Z,7.30
2018-11-07T11:25:24.714Z,7.53
2018-11-07T11:28:28.281Z,7.43
2018-11-07T11:31:31.795Z,7.90
2018-11-07T11:34:35.523Z,7.27
2018-11-07T11:37:39.158Z,7.70
2018-11-07T11:40:42.673Z,7.30
2018-11-07T11:43:46.213Z,7.27
2018-11-07T11:46:50.020Z,7.27
2018-11-07T11:49:53.561Z,7.00
2018-11-07T11:52:57.091Z,7.37
2018-11-07T11:56:00.610Z,7.03
2018-11-07T11:59:04.583Z,6.80
2018-11-07T12:02:08.082Z,6.20
2018-11-07T12:05:12.854Z,5.67
2018-11-07T12:08:16.467Z,6.13
2018-11-07T12:11:19.993Z,6.40
2018-11-07T12:14:23.559Z,6.00
2018-11-07T12:17:27.092Z,6.10
2018-11-07T12:20:30.716Z,5.50
2018-11-07T12:23:34.274Z,5.83
2018-11-07T12:26:37.818Z,5.40
2018-11-07T12:29:41.449Z,5.97
2018-11-07T12:32:46.357Z,5.30
2018-11-07T12:35:50.161Z,5.70
2018-11-07T12:38:53.573Z,5.17
2018-11-07T12:41:57.069Z,4.60
2018-11-07T12:45:01.153Z,4.80
2018-11-07T12:48:04.903Z,5.53
2018-11-07T12:51:08.506Z,6.33
2018-11-07T12:54:11.955Z,5.93
2018-11-07T12:57:15.499Z,5.93
2018-11-07T13:00:21.434Z,6.20
2018-11-07T13:03:24.821Z,5.63
2018-11-07T13:06:28.329Z,5.30
2018-11-07T13:09:31.839Z,4.73
2018-11-07T13:12:35.308Z,4.50
2018-11-07T13:15:38.817Z,5.17
2018-11-07T13:18:42.521Z,5.10
2018-11-07T13:21:46.043Z,4.67
2018-11-07T13:24:49.525Z,4.40
2018-11-07T13:27:53.115Z,5.77
2018-11-07T13:30:56.655Z,3.93
2018-11-07T13:34:00.196Z,4.73
2018-11-07T13:37:03.754Z,4.83
2018-11-07T13:40:10.141Z,4.43
2018-11-07T13:43:13.696Z,3.87
2018-11-07T13:46:17.309Z,3.80
2018-11-07T13:49:20.833Z,4.27
2018-11-07T13:52:24.356Z,4.20
2018-11-07T13:55:27.927Z,3.87
2018-11-07T13:58:31.492Z,4.07
2018-11-07T14:01:34.988Z,3.33
2018-11-07T14:04:38.446Z,3.80
2018-11-07T14:07:42.022Z,3.50
2018-11-07T14:10:45.540Z,3.30
2018-11-07T14:13:49.133Z,3.53
2018-11-07T14:16:52.736Z,3.30
2018-11-07T14:19:56.293Z,3.40
2018-11-07T14:22:59.786Z,3.60
2018-11-07T14:26:03.514Z,3.20
2018-11-07T14:29:07.093Z,3.30
2018-11-07T14:32:10.641Z,3.47
2018-11-07T14:35:14.288Z,3.70
2018-11-07T14:38:17.972Z,3.73
2018-11-07T14:41:21.484Z,4.57
2018-11-07T14:44:25.111Z,4.87
2018-11-07T14:47:28.704Z,4.77
2018-11-07T14:50:32.136Z,5.13
2018-11-07T14:53:35.720Z,5.10
2018-11-07T14:56:39.113Z,5.10
2018-11-07T14:59:42.763Z,5.20
2018-11-07T15:02:46.625Z,5.60
2018-11-07T15:05:50.122Z,5.53
2018-11-07T15:08:53.619Z,5.33
2018-11-07T15:11:57.107Z,5.50
2018-11-07T15:15:00.625Z,5.20
2018-11-07T15:18:04.087Z,5.57
2018-11-07T15:21:07.638Z,5.20
2018-11-07T15:24:11.190Z,5.10
2018-11-07T15:27:14.741Z,5.27
2018-11-07T15:30:18.619Z,6.10
2018-11-07T15:33:23.059Z,5.57
2018-11-07T15:36:26.567Z,5.97
2018-11-07T15:39:29.976Z,5.40
2018-11-07T15:42:33.555Z,5.90
2018-11-07T15:45:37.114Z,6.40
2018-11-07T15:48:40.692Z,6.63
2018-11-07T15:51:44.298Z,5.90
2018-11-07T15:54:47.760Z,6.30
2018-11-07T15:57:51.291Z,6.43
2018-11-07T16:00:54.784Z,5.90
2018-11-07T16:03:59.557Z,10.00
2018-11-07T16:07:03.296Z,8.10
2018-11-07T16:10:08.149Z,8.43
2018-11-07T16:13:11.743Z,6.97
2018-11-07T16:16:15.156Z,7.07
2018-11-07T16:19:18.773Z,8.47
2018-11-07T16:22:22.240Z,9.10
2018-11-07T16:25:25.757Z,10.63
2018-11-07T16:28:29.405Z,11.33
2018-11-07T16:31:32.996Z,12.83
2018-11-07T16:34:36.598Z,11.77
2018-11-07T16:37:40.297Z,10.27
2018-11-07T16:40:43.834Z,8.43
2018-11-07T16:43:48.236Z,7.53
2018-11-07T16:46:51.725Z,6.90
2018-11-07T16:49:55.150Z,7.33
2018-11-07T16:52:58.531Z,6.20
2018-11-07T16:56:01.997Z,6.50
2018-11-07T16:59:06.485Z,6.30
2018-11-07T17:02:10.094Z,6.07
2018-11-07T17:05:13.968Z,6.10
2018-11-07T17:08:17.479Z,6.47
2018-11-07T17:11:21.089Z,5.73
2018-11-07T17:14:24.479Z,6.30
2018-11-07T17:17:27.921Z,6.37
2018-11-07T17:20:31.288Z,6.17
2018-11-07T17:23:35.034Z,6.73
2018-11-07T17:26:38.495Z,6.77
2018-11-07T17:29:41.932Z,7.50
2018-11-07T17:32:45.459Z,8.23
2018-11-07T17:35:48.955Z,7.07
2018-11-07T17:38:52.469Z,7.57
2018-11-07T17:41:55.915Z,8.10
2018-11-07T17:44:59.394Z,10.87
2018-11-07T17:48:03.993Z,9.47
2018-11-07T17:51:07.398Z,12.10
2018-11-07T17:54:10.989Z,10.57
2018-11-07T17:57:14.508Z,9.17
2018-11-07T18:00:22.358Z,8.73
2018-11-07T18:03:25.944Z,9.10
2018-11-07T18:06:30.983Z,8.90
2018-11-07T18:09:34.629Z,9.23
2018-11-07T18:12:38.500Z,9.20
2018-11-07T18:15:42.141Z,8.93
2018-11-07T18:18:45.710Z,10.10
2018-11-07T18:21:49.279Z,9.83
2018-11-07T18:24:52.934Z,10.45
2018-11-07T18:27:56.651Z,10.00
2018-11-07T18:31:00.189Z,10.20
2018-11-07T18:34:05.957Z,9.30
2018-11-07T18:37:11.618Z,10.00
2018-11-07T18:40:16.543Z,9.67
2018-11-07T18:43:20.134Z,9.20
2018-11-07T18:46:23.806Z,9.63
2018-11-07T18:49:27.495Z,9.60
2018-11-07T18:52:30.980Z,9.53
2018-11-07T18:55:34.564Z,8.73
2018-11-07T18:58:38.344Z,9.60
2018-11-07T19:01:42.784Z,16.07
2018-11-07T19:04:46.251Z,9.53
2018-11-07T19:07:49.753Z,9.77
2018-11-07T19:10:53.242Z,11.03
2018-11-07T19:13:56.731Z,11.53
2018-11-07T19:17:00.414Z,13.20
2018-11-07T19:20:03.988Z,14.73
2018-11-07T19:23:07.469Z,16.67
2018-11-07T19:26:11.109Z,17.43
2018-11-07T19:29:14.575Z,17.35
2018-11-07T19:32:19.117Z,18.02
2018-11-07T19:35:23.029Z,16.05
2018-11-07T19:38:26.549Z,16.77
2018-11-07T19:41:30.084Z,17.30
2018-11-07T19:44:33.656Z,14.57
2018-11-07T19:47:37.815Z,15.13
2018-11-07T19:50:41.347Z,14.63
2018-11-07T19:53:44.830Z,15.77
2018-11-07T19:56:48.346Z,13.57
2018-11-07T19:59:51.928Z,14.03
2018-11-07T20:02:55.713Z,14.77
2018-11-07T20:05:59.206Z,14.60
2018-11-07T20:09:02.731Z,14.80
2018-11-07T20:12:06.720Z,15.98
2018-11-07T20:15:11.747Z,16.10
2018-11-07T20:18:15.316Z,14.87
2018-11-07T20:21:18.933Z,13.97
2018-11-07T20:24:22.426Z,14.07
2018-11-07T20:27:25.973Z,12.67
2018-11-07T20:30:30.429Z,12.13
2018-11-07T20:33:33.885Z,13.50
2018-11-07T20:36:37.394Z,15.13
2018-11-07T20:39:41.014Z,15.27
2018-11-07T20:42:45.540Z,17.90
2018-11-07T20:45:49.031Z,15.43
2018-11-07T20:48:52.978Z,15.67
2018-11-07T20:51:56.418Z,15.10
2018-11-07T20:54:59.926Z,15.30
2018-11-07T20:58:03.445Z,16.83
2018-11-07T21:01:06.958Z,17.37
2018-11-07T21:04:10.459Z,16.80
2018-11-07T21:07:13.965Z,18.83
2018-11-07T21:10:18.862Z,18.23
2018-11-07T21:13:22.360Z,17.30
2018-11-07T21:16:25.918Z,16.30
2018-11-07T21:19:29.525Z,16.63
2018-11-07T21:22:33.027Z,16.60
2018-11-07T21:25:36.662Z,16.03
2018-11-07T21:28:40.109Z,14.37
2018-11-07T21:31:43.617Z,13.37
2018-11-07T21:34:47.132Z,12.97
2018-11-07T21:37:50.584Z,12.37
2018-11-07T21:40:54.094Z,11.70
2018-11-07T21:43:57.583Z,10.97
2018-11-07T21:47:00.966Z,11.50
2018-11-07T21:50:05.251Z,11.07
2018-11-07T21:53:08.676Z,11.10
2018-11-07T21:56:12.158Z,11.07
2018-11-07T21:59:16.721Z,10.73
2018-11-07T22:02:20.135Z,10.40
2018-11-07T22:05:23.666Z,10.83
2018-11-07T22:08:27.109Z,10.13
2018-11-07T22:11:30.683Z,10.17
2018-11-07T22:14:34.133Z,10.37
2018-11-07T22:17:37.854Z,9.33
2018-11-07T22:20:41.256Z,9.10
2018-11-07T22:23:44.653Z,10.07
2018-11-07T22:26:48.095Z,9.23
2018-11-07T22:29:51.768Z,9.10
2018-11-07T22:32:55.202Z,9.80
2018-11-07T22:35:58.635Z,8.53
2018-11-07T22:39:02.055Z,8.23
2018-11-07T22:42:05.809Z,8.87
2018-11-07T22:45:09.891Z,9.00
2018-11-07T22:48:13.291Z,9.13
2018-11-07T22:51:16.846Z,8.90
2018-11-07T22:54:20.383Z,8.50
2018-11-07T22:57:23.821Z,8.80
2018-11-07T23:00:32.560Z,9.47
2018-11-07T23:03:36.147Z,8.53
2018-11-07T23:06:40.235Z,8.63
2018-11-07T23:09:43.773Z,8.83
2018-11-07T23:12:47.683Z,9.23
2018-11-07T23:15:52.173Z,7.83
2018-11-07T23:18:55.813Z,8.60
2018-11-07T23:21:59.264Z,7.93
2018-11-07T23:25:02.943Z,8.00
2018-11-07T23:28:06.624Z,8.10
2018-11-07T23:31:10.238Z,8.30
2018-11-07T23:34:13.707Z,8.90
2018-11-07T23:37:17.252Z,8.70
2018-11-07T23:40:20.818Z,8.00
2018-11-07T23:43:24.347Z,8.20
2018-11-07T23:46:27.860Z,7.43
2018-11-07T23:49:31.322Z,6.40
2018-11-07T23:52:40.184Z,7.27
2018-11-07T23:55:44.566Z,7.47
2018-11-07T23:58:49.392Z,7.13
